Terminal Aerodrome Forecast
Issued by NWS Wakefield, VA

Home | Current Version | Previous Version | Text Only | Print | Product List | Glossary On
Versions: 1 2 3 4 5 6 7 8 9 10 11 12 13 14 15 16 17 18 19
000
FTUS41 KAKQ 250539
TAFECG
TAF
KECG 250539Z 2506/2606 12008KT P6SM BKN010 BKN025
     FM250900 16010KT P6SM BKN007 BKN020
     FM251300 19007KT P6SM BKN030
     FM251600 20007KT P6SM BKN040
     FM252000 24010KT 6SM -SHRA BKN040
     FM260100 28007KT P6SM BKN050=

USA.gov is the U.S. government's official web portal to all federal, state and local government web resources and services.